Winchester, VA

7:43 PM EST on December 07, 2016 (GMT -0500)
Winchester Regional | | Change Station

Elev 728 ft 39.14 °N, 78.14 °W | Updated 8 minutes ago

Clear
Clear
34 °F
Feels Like 34 °F
N
0
Wind Variable Wind from North

Today
High -- | Low -- °F
--% Chance of Precip.
Yesterday
High -- | Low -- °F
Precip. -- in
Pressure 30.06 in
Visibility 10.0 miles
Clouds Clear
Dew Point 25 °F
Humidity 70%
Rainfall 0.03 in
Snow Depth Not available.
7:18 AM 4:49 PM
First Quarter, 57% visible
METAR KOKV 080035Z AUTO 00000KT 10SM CLR 01/M04 A3006 RMK AO2
Pressure 30.06 in
Visibility 10.0 miles
Clouds Clear
Dew Point 25 °F
Humidity 70%
Rainfall 0.03 in
Snow Depth Not available.
7:18 AM 4:49 PM
First Quarter, 57% visible
METAR KOKV 080035Z AUTO 00000KT 10SM CLR 01/M04 A3006 RMK AO2

10-Day Weather Forecast

Almanac

Astronomy

Dec. 07, 2016 Rise Set
Actual Time
Civil Twilight
Nautical Twilight
Astronomical Twilight
Moon
Length of Visible Light
Length of Day
Tomorrow will be .
, % of the Moon is Illuminated

Today's Extremes

State Highs State Lows

Community

WunderPhotos

Upload Photos

1,956,237 photos uploaded!

WunderBlog® & News

Nearby

Air Quality

  Air Quality AQ Index Pollutant
Not available.

Snow Depth

Station Depth Elevation

Earthquake Activity

City Distance Mag. Time & Date
Minimum magnitude displayed is 2.5.

Coastal Water Temperatures

Place Temperature

Stations

Nearby Weather Stations

Station Location Temp. Windchill Dew Point Humidity Wind Precip. Elev Updated Type
                   

Watches & Warnings

There are currently no watches in effect.